createdAt,value
2017-12-25T00:01:48.497Z,0.40
2017-12-25T00:04:15.943Z,0.40
2017-12-25T00:06:44.152Z,0.32
2017-12-25T00:09:11.623Z,0.57
2017-12-25T00:11:39.091Z,0.40
2017-12-25T00:14:06.564Z,0.50
2017-12-25T00:16:34.023Z,0.60
2017-12-25T00:19:01.443Z,0.90
2017-12-25T00:21:29.635Z,0.80
2017-12-25T00:23:57.053Z,0.70
2017-12-25T00:26:24.475Z,0.80
2017-12-25T00:28:52.020Z,0.80
2017-12-25T00:31:19.439Z,0.82
2017-12-25T00:33:47.659Z,1.00
2017-12-25T00:36:15.120Z,0.95
2017-12-25T00:38:42.536Z,0.80
2017-12-25T00:41:09.960Z,1.15
2017-12-25T00:43:37.379Z,1.17
2017-12-25T00:46:05.005Z,1.10
2017-12-25T00:48:33.167Z,1.30
2017-12-25T00:51:01.347Z,1.23
2017-12-25T00:53:29.564Z,1.60
2017-12-25T00:55:57.033Z,1.05
2017-12-25T00:58:24.472Z,1.08
2017-12-25T01:00:52.692Z,1.20
2017-12-25T01:03:20.111Z,1.10
2017-12-25T01:05:47.542Z,0.98
2017-12-25T01:08:14.951Z,1.30
2017-12-25T01:10:42.420Z,1.20
2017-12-25T01:13:09.828Z,1.20
2017-12-25T01:15:37.255Z,1.20
2017-12-25T01:18:04.680Z,1.17
2017-12-25T01:20:32.095Z,1.37
2017-12-25T01:22:59.608Z,1.20
2017-12-25T01:25:27.024Z,0.95
2017-12-25T01:27:54.531Z,0.77
2017-12-25T01:30:22.754Z,1.50
2017-12-25T01:32:50.147Z,1.25
2017-12-25T01:35:17.581Z,0.90
2017-12-25T01:37:44.987Z,1.40
2017-12-25T01:40:12.408Z,1.20
2017-12-25T01:42:39.880Z,1.50
2017-12-25T01:45:07.320Z,1.58
2017-12-25T01:47:35.499Z,1.20
2017-12-25T01:50:03.004Z,1.45
2017-12-25T01:52:30.419Z,1.20
2017-12-25T01:54:57.843Z,1.23
2017-12-25T02:00:29.872Z,1.20
2017-12-25T02:02:59.215Z,1.35
2017-12-25T02:05:38.308Z,1.05
2017-12-25T02:11:06.125Z,1.17
2017-12-25T02:13:33.552Z,1.10
2017-12-25T02:16:00.976Z,1.12
2017-12-25T02:18:28.459Z,1.10
2017-12-25T02:20:55.875Z,1.00
2017-12-25T02:23:24.188Z,1.08
2017-12-25T02:25:51.629Z,1.02
2017-12-25T02:28:19.033Z,0.93
2017-12-25T02:30:46.600Z,0.95
2017-12-25T02:33:14.755Z,0.80
2017-12-25T02:35:42.960Z,1.10
2017-12-25T02:38:11.168Z,0.82
2017-12-25T02:40:38.632Z,0.75
2017-12-25T02:43:06.104Z,0.80
2017-12-25T02:45:33.577Z,0.50
2017-12-25T02:48:01.041Z,0.40
2017-12-25T02:50:28.476Z,0.70
2017-12-25T02:52:55.984Z,0.60
2017-12-25T02:55:23.553Z,0.60
2017-12-25T02:57:50.959Z,0.57
2017-12-25T03:00:18.392Z,0.80
2017-12-25T03:02:45.801Z,0.52
2017-12-25T03:05:13.215Z,0.62
2017-12-25T03:07:40.695Z,0.60
2017-12-25T03:10:08.120Z,0.73
2017-12-25T03:12:36.320Z,0.40
2017-12-25T03:15:04.504Z,0.60
2017-12-25T03:17:32.692Z,0.65
2017-12-25T03:20:00.907Z,0.55
2017-12-25T03:22:28.380Z,0.50
2017-12-25T03:24:55.800Z,0.52
2017-12-25T03:27:23.224Z,0.75
2017-12-25T03:29:50.638Z,0.80
2017-12-25T03:32:18.071Z,0.45
2017-12-25T03:34:46.551Z,0.40
2017-12-25T03:37:14.020Z,0.90
2017-12-25T03:39:41.492Z,0.80
2017-12-25T03:42:08.967Z,0.70
2017-12-25T03:44:36.384Z,0.70
2017-12-25T03:47:03.900Z,0.75
2017-12-25T03:49:32.120Z,0.70
2017-12-25T03:51:59.549Z,0.70
2017-12-25T03:54:26.964Z,0.60
2017-12-25T03:56:54.393Z,0.80
2017-12-25T03:59:21.867Z,0.60
2017-12-25T04:01:49.305Z,0.70
2017-12-25T04:04:17.496Z,0.68
2017-12-25T04:06:45.676Z,0.55
2017-12-25T04:09:13.874Z,0.60
2017-12-25T04:11:42.096Z,0.75
2017-12-25T04:14:09.529Z,0.80
2017-12-25T04:16:37.744Z,0.88
2017-12-25T04:19:05.160Z,0.77
2017-12-25T04:21:32.677Z,0.85
2017-12-25T04:24:00.860Z,0.77
2017-12-25T04:26:28.332Z,0.85
2017-12-25T04:28:55.751Z,0.90
2017-12-25T04:31:23.165Z,0.80
2017-12-25T04:33:50.592Z,0.98
2017-12-25T04:36:18.013Z,0.93
2017-12-25T04:38:45.469Z,0.90
2017-12-25T04:41:13.629Z,1.12
2017-12-25T04:43:41.850Z,0.90
2017-12-25T04:46:09.269Z,0.90
2017-12-25T04:48:36.687Z,0.90
2017-12-25T04:51:04.168Z,0.93
2017-12-25T04:53:31.591Z,0.70
2017-12-25T04:55:59.767Z,0.90
2017-12-25T04:58:27.288Z,0.85
2017-12-25T05:00:54.738Z,0.90
2017-12-25T05:03:22.164Z,0.70
2017-12-25T05:05:49.703Z,0.70
2017-12-25T05:08:17.149Z,0.57
2017-12-25T05:10:45.319Z,0.70
2017-12-25T05:13:13.540Z,0.73
2017-12-25T05:15:41.113Z,0.73
2017-12-25T05:18:09.312Z,0.70
2017-12-25T05:20:36.769Z,0.65
2017-12-25T05:23:05.277Z,0.73
2017-12-25T05:25:32.733Z,0.60
2017-12-25T05:28:00.198Z,0.70
2017-12-25T05:30:28.384Z,0.85
2017-12-25T05:32:55.855Z,0.68
2017-12-25T05:35:23.284Z,0.70
2017-12-25T05:37:50.792Z,0.88
2017-12-25T05:40:18.304Z,0.90
2017-12-25T05:42:45.721Z,1.27
2017-12-25T05:45:13.168Z,0.75
2017-12-25T05:47:41.362Z,0.90
2017-12-25T05:50:09.548Z,0.65
2017-12-25T05:52:37.804Z,0.77
2017-12-25T05:55:05.248Z,0.70
2017-12-25T05:57:32.658Z,0.65
2017-12-25T06:00:00.081Z,0.77
2017-12-25T06:02:27.545Z,0.60
2017-12-25T06:04:55.010Z,0.50
2017-12-25T06:07:23.178Z,0.50
2017-12-25T06:09:51.356Z,0.50
2017-12-25T06:12:19.565Z,0.65
2017-12-25T06:14:47.040Z,0.50
2017-12-25T06:17:14.508Z,0.30
2017-12-25T06:19:42.694Z,0.57
2017-12-25T06:22:10.122Z,0.20
2017-12-25T06:24:37.634Z,0.30
2017-12-25T06:27:05.052Z,0.30
2017-12-25T06:29:32.500Z,0.30
2017-12-25T06:31:59.922Z,0.30
2017-12-25T06:34:28.129Z,0.30
2017-12-25T06:36:55.560Z,0.17
2017-12-25T06:39:22.976Z,0.30
2017-12-25T06:41:50.551Z,0.30
2017-12-25T06:44:18.014Z,0.30
2017-12-25T06:46:45.488Z,0.30
2017-12-25T06:49:12.948Z,0.28
2017-12-25T06:51:40.428Z,0.22
2017-12-25T06:54:07.894Z,0.30
2017-12-25T06:56:35.356Z,0.30
2017-12-25T06:59:02.794Z,0.20
2017-12-25T07:01:30.952Z,0.20
2017-12-25T07:03:58.382Z,0.30
2017-12-25T07:06:25.792Z,0.30
2017-12-25T07:08:53.325Z,0.20
2017-12-25T07:11:20.740Z,0.20
2017-12-25T07:13:48.163Z,0.30
2017-12-25T07:16:15.583Z,0.30
2017-12-25T07:18:43.013Z,0.30
2017-12-25T07:21:10.429Z,0.30
2017-12-25T07:23:37.850Z,0.30
2017-12-25T07:26:05.324Z,0.40
2017-12-25T07:28:32.752Z,0.20
2017-12-25T07:31:00.936Z,0.20
2017-12-25T07:33:29.170Z,0.30
2017-12-25T07:35:56.613Z,0.20
2017-12-25T07:38:24.053Z,0.20
2017-12-25T07:40:52.245Z,0.30
2017-12-25T07:43:20.437Z,0.15
2017-12-25T07:45:48.636Z,0.20
2017-12-25T07:48:16.060Z,0.52
2017-12-25T07:50:43.472Z,0.17
2017-12-25T07:53:10.895Z,0.30
2017-12-25T07:55:38.312Z,0.10
2017-12-25T07:58:05.788Z,0.20
2017-12-25T08:00:33.956Z,0.20
2017-12-25T08:03:02.136Z,0.20
2017-12-25T08:05:30.359Z,0.30
2017-12-25T08:07:57.772Z,0.20
2017-12-25T08:10:25.233Z,0.20
2017-12-25T08:12:53.609Z,0.10
2017-12-25T08:15:21.028Z,0.25
2017-12-25T08:17:49.240Z,0.20
2017-12-25T08:20:16.701Z,0.20
2017-12-25T08:22:44.112Z,0.20
2017-12-25T08:25:11.644Z,0.20
2017-12-25T08:27:39.112Z,0.20
2017-12-25T08:30:06.537Z,0.20
2017-12-25T08:32:34.056Z,0.10
2017-12-25T08:35:01.684Z,0.10
2017-12-25T08:37:29.104Z,0.10
2017-12-25T08:39:56.637Z,0.10
2017-12-25T08:42:24.816Z,0.20
2017-12-25T08:44:53.045Z,0.17
2017-12-25T08:47:20.501Z,0.20
2017-12-25T08:49:47.985Z,0.10
2017-12-25T08:52:15.405Z,0.20
2017-12-25T08:54:42.917Z,0.20
2017-12-25T08:57:10.342Z,0.22
2017-12-25T08:59:37.776Z,0.28
2017-12-25T09:02:05.184Z,0.20
2017-12-25T09:04:34.104Z,0.30
2017-12-25T09:07:02.334Z,0.30
2017-12-25T09:09:29.751Z,0.20
2017-12-25T09:11:57.169Z,0.30
2017-12-25T09:14:24.618Z,0.20
2017-12-25T09:16:52.085Z,0.20
2017-12-25T09:19:19.492Z,0.20
2017-12-25T09:21:46.947Z,0.20
2017-12-25T09:24:14.362Z,0.32
2017-12-25T09:26:41.784Z,0.28
2017-12-25T09:29:09.200Z,0.20
2017-12-25T09:31:37.462Z,0.20
2017-12-25T09:34:04.892Z,0.20
2017-12-25T09:36:32.316Z,0.30
2017-12-25T09:38:59.842Z,0.28
2017-12-25T09:41:27.268Z,0.20
2017-12-25T09:43:54.773Z,0.30
2017-12-25T09:46:22.194Z,0.40
2017-12-25T09:48:49.604Z,0.30
2017-12-25T09:51:17.036Z,0.57
2017-12-25T09:53:44.450Z,0.30
2017-12-25T09:56:11.916Z,0.40
2017-12-25T09:58:39.337Z,0.50
2017-12-25T10:01:06.748Z,0.57
2017-12-25T10:03:34.228Z,0.57
2017-12-25T10:06:01.644Z,0.50
2017-12-25T10:08:29.070Z,0.40
2017-12-25T10:10:56.532Z,0.40
2017-12-25T10:13:23.953Z,0.40
2017-12-25T10:15:51.474Z,0.60
2017-12-25T10:18:18.898Z,0.70
2017-12-25T10:20:46.312Z,0.47
2017-12-25T10:23:13.737Z,0.60
2017-12-25T10:25:41.248Z,0.75
2017-12-25T10:28:08.668Z,0.60
2017-12-25T10:30:36.080Z,0.60
2017-12-25T10:33:03.504Z,0.70
2017-12-25T10:35:30.924Z,0.62
2017-12-25T10:37:58.368Z,0.57
2017-12-25T10:40:26.540Z,0.47
2017-12-25T10:42:55.788Z,0.68
2017-12-25T10:45:23.200Z,0.70
2017-12-25T10:47:50.620Z,0.60
2017-12-25T10:50:18.033Z,0.80
2017-12-25T10:52:45.461Z,0.60
2017-12-25T10:55:12.889Z,1.00
2017-12-25T10:57:40.416Z,0.80
2017-12-25T11:00:07.876Z,1.00
2017-12-25T11:02:35.290Z,0.65
2017-12-25T11:05:02.718Z,0.80
2017-12-25T11:07:30.184Z,0.62
2017-12-25T11:09:57.604Z,0.80
2017-12-25T11:12:25.117Z,0.80
2017-12-25T11:14:52.545Z,0.70
2017-12-25T11:17:19.960Z,0.70
2017-12-25T11:19:47.424Z,0.73
2017-12-25T11:22:14.893Z,0.70
2017-12-25T11:24:42.333Z,0.98
2017-12-25T11:27:10.549Z,0.80
2017-12-25T11:29:37.973Z,0.82
2017-12-25T11:32:05.494Z,0.60
2017-12-25T11:34:32.916Z,0.80
2017-12-25T11:37:00.335Z,0.73
2017-12-25T11:39:27.817Z,1.00
2017-12-25T11:41:55.232Z,0.98
2017-12-25T11:44:23.425Z,0.90
2017-12-25T11:46:51.604Z,1.15
2017-12-25T11:49:19.112Z,0.85
2017-12-25T11:51:46.529Z,0.70
2017-12-25T11:54:14.049Z,0.70
2017-12-25T11:56:41.529Z,15.73
2017-12-25T11:59:08.948Z,1.00
2017-12-25T12:01:36.371Z,1.45
2017-12-25T12:04:03.836Z,0.70
2017-12-25T12:06:31.255Z,0.60
2017-12-25T12:08:58.680Z,0.62
2017-12-25T12:11:26.139Z,0.50
2017-12-25T12:13:53.609Z,0.50
2017-12-25T12:16:21.072Z,1.00
2017-12-25T12:18:48.521Z,0.88
2017-12-25T12:21:16.741Z,1.00
2017-12-25T12:23:44.156Z,0.70
2017-12-25T12:26:11.672Z,0.50
2017-12-25T12:28:39.144Z,0.52
2017-12-25T12:31:06.608Z,0.65
2017-12-25T12:33:35.112Z,0.90
2017-12-25T12:36:02.533Z,0.70
2017-12-25T12:38:30.040Z,0.60
2017-12-25T12:40:57.518Z,0.80
2017-12-25T12:43:24.932Z,0.60
2017-12-25T12:45:52.364Z,0.57
2017-12-25T12:48:19.819Z,0.65
2017-12-25T12:50:47.293Z,0.62
2017-12-25T12:53:15.612Z,0.90
2017-12-25T12:55:43.048Z,0.65
2017-12-25T12:58:10.476Z,0.70
2017-12-25T13:00:37.999Z,0.50
2017-12-25T13:03:05.420Z,0.60
2017-12-25T13:05:32.831Z,1.75
2017-12-25T13:08:00.305Z,6.28
2017-12-25T13:10:27.786Z,8.20
2017-12-25T13:12:55.242Z,8.00
2017-12-25T13:15:22.664Z,8.63
2017-12-25T13:17:50.088Z,7.75
2017-12-25T13:20:17.508Z,8.25
2017-12-25T13:22:45.732Z,9.02
2017-12-25T13:25:13.148Z,8.43
2017-12-25T13:27:40.577Z,8.20
2017-12-25T13:30:08.047Z,7.62
2017-12-25T13:32:35.474Z,7.70
2017-12-25T13:35:02.890Z,8.70
2017-12-25T13:37:30.316Z,8.80
2017-12-25T13:39:58.544Z,8.70
2017-12-25T13:42:25.968Z,9.68
2017-12-25T13:44:54.153Z,8.88
2017-12-25T13:47:21.656Z,8.35
2017-12-25T13:49:49.336Z,8.52
2017-12-25T13:52:16.772Z,7.87
2017-12-25T13:54:45.963Z,8.13
2017-12-25T13:57:13.391Z,8.18
2017-12-25T13:59:40.811Z,7.65
2017-12-25T14:02:08.261Z,8.75
2017-12-25T14:04:35.789Z,9.05
2017-12-25T14:07:03.268Z,8.20
2017-12-25T14:09:30.696Z,7.72
2017-12-25T14:11:58.116Z,7.85
2017-12-25T14:14:25.780Z,8.23
2017-12-25T14:16:53.196Z,7.60
2017-12-25T14:19:20.624Z,8.00
2017-12-25T14:21:48.080Z,9.45
2017-12-25T14:24:15.512Z,10.80
2017-12-25T14:26:43.736Z,9.93
2017-12-25T14:29:11.168Z,10.25
2017-12-25T14:31:38.619Z,9.88
2017-12-25T14:34:06.052Z,9.95
2017-12-25T14:36:33.468Z,9.52
2017-12-25T14:39:00.892Z,8.88
2017-12-25T14:41:28.315Z,8.93
2017-12-25T14:43:55.820Z,8.25
2017-12-25T14:46:23.236Z,8.30
2017-12-25T14:48:50.664Z,9.27
2017-12-25T14:51:18.081Z,9.10
2017-12-25T14:53:45.504Z,9.13
2017-12-25T14:56:12.968Z,9.85
2017-12-25T14:58:40.440Z,9.35
2017-12-25T15:01:07.876Z,9.40
2017-12-25T15:03:36.062Z,8.93
2017-12-25T15:06:04.277Z,8.88
2017-12-25T15:08:31.700Z,9.65
2017-12-25T15:10:59.129Z,8.82
2017-12-25T15:13:26.547Z,9.65
2017-12-25T15:15:54.775Z,8.40
2017-12-25T15:18:22.189Z,9.10
2017-12-25T15:20:49.712Z,7.85
2017-12-25T15:23:17.184Z,8.30
2017-12-25T15:25:44.632Z,8.43
2017-12-25T15:28:12.816Z,9.00
2017-12-25T15:30:41.006Z,9.52
2017-12-25T15:33:09.191Z,8.50
2017-12-25T15:35:37.396Z,9.07
2017-12-25T15:38:04.815Z,9.15
2017-12-25T15:40:33.776Z,8.82
2017-12-25T15:43:01.202Z,9.27
2017-12-25T15:45:28.710Z,9.30
2017-12-25T15:47:56.128Z,10.45
2017-12-25T15:50:23.548Z,9.88
2017-12-25T15:52:51.024Z,9.50
2017-12-25T15:55:18.444Z,9.80
2017-12-25T15:57:45.956Z,10.40
2017-12-25T16:00:13.376Z,10.43
2017-12-25T16:02:40.805Z,11.48
2017-12-25T16:05:08.225Z,12.20
2017-12-25T16:07:35.732Z,12.00
2017-12-25T16:10:03.162Z,12.25
2017-12-25T16:12:31.348Z,13.05
2017-12-25T16:14:58.911Z,11.48
2017-12-25T16:17:26.287Z,11.40
2017-12-25T16:19:53.795Z,13.27
2017-12-25T16:22:21.223Z,12.13
2017-12-25T16:24:48.648Z,13.23
2017-12-25T16:27:16.108Z,12.52
2017-12-25T16:29:43.527Z,12.10
2017-12-25T16:32:10.956Z,11.32
2017-12-25T16:34:38.376Z,11.35
2017-12-25T16:37:05.890Z,11.45
2017-12-25T16:39:33.308Z,10.98
2017-12-25T16:42:02.248Z,11.75
2017-12-25T16:44:29.664Z,11.90
2017-12-25T16:46:57.084Z,11.55
2017-12-25T16:49:24.512Z,11.00
2017-12-25T16:51:53.460Z,11.52
2017-12-25T16:54:20.887Z,11.55
2017-12-25T16:56:48.315Z,11.48
2017-12-25T16:59:15.740Z,11.88
2017-12-25T17:01:43.928Z,12.45
2017-12-25T17:04:12.145Z,11.38
2017-12-25T17:06:39.564Z,10.85
2017-12-25T17:09:07.001Z,10.82
2017-12-25T17:11:34.412Z,10.55
2017-12-25T17:14:01.929Z,9.18
2017-12-25T17:16:29.351Z,10.00
2017-12-25T17:18:56.776Z,9.25
2017-12-25T17:21:24.196Z,9.50
2017-12-25T17:23:52.403Z,10.20
2017-12-25T17:26:20.585Z,9.43
2017-12-25T17:28:48.780Z,9.95
2017-12-25T17:31:16.208Z,10.05
2017-12-25T17:33:43.654Z,10.02
2017-12-25T17:36:11.099Z,11.18
2017-12-25T17:38:38.528Z,11.35
2017-12-25T17:41:06.720Z,11.55
2017-12-25T17:43:34.933Z,10.63
2017-12-25T17:46:03.112Z,10.45
2017-12-25T17:48:31.299Z,11.43
2017-12-25T17:50:58.801Z,12.13
2017-12-25T17:53:26.213Z,11.48
2017-12-25T17:55:53.646Z,12.35
2017-12-25T17:58:21.069Z,12.45
2017-12-25T18:00:50.244Z,12.70
2017-12-25T18:03:17.670Z,12.43
2017-12-25T18:05:45.144Z,12.52
2017-12-25T18:08:12.562Z,13.65
2017-12-25T18:10:40.081Z,12.85
2017-12-25T18:13:07.502Z,15.13
2017-12-25T18:15:35.015Z,13.07
2017-12-25T18:18:02.432Z,13.57
2017-12-25T18:20:30.632Z,12.95
2017-12-25T18:22:59.556Z,14.35
2017-12-25T18:25:27.756Z,14.25
2017-12-25T18:27:55.237Z,13.32
2017-12-25T18:30:22.680Z,14.18
2017-12-25T18:32:50.888Z,15.10
2017-12-25T18:35:18.320Z,14.07
2017-12-25T18:37:45.748Z,13.48
2017-12-25T18:40:13.200Z,13.35
2017-12-25T18:42:40.669Z,14.68
2017-12-25T18:45:08.091Z,13.98
2017-12-25T18:47:35.516Z,15.18
2017-12-25T18:50:02.948Z,15.60
2017-12-25T18:52:31.151Z,14.75
2017-12-25T18:54:59.330Z,15.05
2017-12-25T18:57:27.524Z,15.02
2017-12-25T18:59:54.944Z,16.00
2017-12-25T19:02:22.395Z,16.02
2017-12-25T19:04:49.820Z,15.35
2017-12-25T19:07:18.016Z,16.00
2017-12-25T19:09:45.441Z,15.27
2017-12-25T19:12:12.889Z,15.63
2017-12-25T19:14:40.336Z,15.57
2017-12-25T19:17:07.764Z,16.55
2017-12-25T19:19:35.186Z,15.75
2017-12-25T19:22:02.616Z,15.15
2017-12-25T19:24:30.809Z,16.83
2017-12-25T19:26:59.009Z,16.17
2017-12-25T19:29:26.488Z,16.02
2017-12-25T19:31:53.954Z,16.55
2017-12-25T19:34:21.367Z,16.87
2017-12-25T19:36:48.800Z,16.70
2017-12-25T19:39:16.221Z,16.62
2017-12-25T19:41:43.727Z,16.95
2017-12-25T19:44:11.132Z,17.48
2017-12-25T19:46:38.572Z,17.08
2017-12-25T19:49:05.988Z,17.45
2017-12-25T19:51:33.416Z,17.45
2017-12-25T19:54:00.849Z,18.05
2017-12-25T19:56:29.036Z,16.40
2017-12-25T19:58:57.281Z,17.23
2017-12-25T20:01:24.720Z,16.05
2017-12-25T20:03:52.152Z,16.92
2017-12-25T20:06:20.340Z,17.00
2017-12-25T20:08:48.543Z,16.83
2017-12-25T20:11:16.723Z,17.40
2017-12-25T20:13:44.920Z,18.00
2017-12-25T20:16:12.337Z,18.12
2017-12-25T20:18:39.880Z,17.25
2017-12-25T20:21:07.305Z,17.15
2017-12-25T20:23:34.732Z,18.67
2017-12-25T20:26:02.185Z,18.27
2017-12-25T20:28:29.664Z,18.35
2017-12-25T20:30:57.088Z,18.85
2017-12-25T20:33:25.296Z,18.42
2017-12-25T20:35:52.720Z,19.05
2017-12-25T20:38:20.248Z,18.20
2017-12-25T20:40:47.677Z,19.70
2017-12-25T20:43:15.112Z,18.80
2017-12-25T20:45:42.537Z,19.65
2017-12-25T20:48:10.724Z,19.62
2017-12-25T20:50:38.912Z,19.02
2017-12-25T20:53:06.400Z,19.50
2017-12-25T20:55:33.871Z,19.50
2017-12-25T20:58:01.442Z,18.52
2017-12-25T21:00:28.869Z,20.98
2017-12-25T21:02:56.287Z,19.48
2017-12-25T21:05:23.724Z,20.83
2017-12-25T21:07:51.932Z,20.42
2017-12-25T21:10:19.356Z,21.02
2017-12-25T21:12:46.787Z,21.70
2017-12-25T21:15:14.236Z,21.58
2017-12-25T21:17:41.668Z,21.10
2017-12-25T21:20:09.092Z,21.62
2017-12-25T21:22:36.516Z,20.83
2017-12-25T21:25:04.716Z,21.77
2017-12-25T21:27:32.205Z,22.20
2017-12-25T21:29:59.672Z,21.17
2017-12-25T21:32:27.141Z,22.60
2017-12-25T21:34:54.713Z,21.83
2017-12-25T21:37:22.189Z,21.62
2017-12-25T21:39:49.626Z,22.02
2017-12-25T21:42:17.804Z,21.17
2017-12-25T21:44:45.999Z,21.42
2017-12-25T21:47:14.193Z,20.75
2017-12-25T21:49:42.384Z,21.15
2017-12-25T21:52:09.817Z,19.33
2017-12-25T21:54:37.261Z,20.85
2017-12-25T21:57:04.687Z,21.87
2017-12-25T21:59:32.904Z,22.95
2017-12-25T22:02:00.369Z,21.65
2017-12-25T22:04:27.796Z,24.35
2017-12-25T22:06:55.280Z,23.70
2017-12-25T22:09:23.466Z,24.77
2017-12-25T22:11:51.660Z,24.80
2017-12-25T22:14:19.147Z,25.92
2017-12-25T22:16:46.575Z,25.95
2017-12-25T22:19:14.089Z,26.35
2017-12-25T22:21:41.520Z,28.02
2017-12-25T22:24:09.713Z,27.00
2017-12-25T22:26:37.937Z,27.10
2017-12-25T22:29:05.404Z,27.30
2017-12-25T22:31:32.912Z,26.98
2017-12-25T22:34:00.308Z,28.48
2017-12-25T22:36:28.504Z,27.08
2017-12-25T22:38:55.932Z,28.02
2017-12-25T22:41:23.464Z,28.35
2017-12-25T22:43:50.884Z,28.52
2017-12-25T22:46:18.307Z,27.08
2017-12-25T22:48:45.736Z,29.87
2017-12-25T22:51:13.956Z,29.42
2017-12-25T22:53:41.392Z,31.12
2017-12-25T22:56:08.808Z,29.92
2017-12-25T22:58:36.236Z,30.12
2017-12-25T23:01:04.449Z,29.42
2017-12-25T23:03:31.880Z,29.73
2017-12-25T23:05:59.392Z,29.67
2017-12-25T23:08:26.815Z,29.92
2017-12-25T23:10:54.236Z,31.10
2017-12-25T23:13:21.664Z,29.73
2017-12-25T23:15:49.856Z,29.42
2017-12-25T23:18:18.053Z,29.77
2017-12-25T23:20:46.235Z,29.48
2017-12-25T23:23:14.437Z,28.15
2017-12-25T23:25:41.856Z,30.60
2017-12-25T23:28:09.285Z,31.12
2017-12-25T23:30:36.704Z,31.62
2017-12-25T23:33:04.225Z,32.45
2017-12-25T23:35:31.692Z,32.97
2017-12-25T23:37:59.119Z,32.85
2017-12-25T23:40:26.642Z,33.13
2017-12-25T23:42:54.101Z,33.92
2017-12-25T23:45:21.572Z,32.42
2017-12-25T23:47:48.991Z,31.25
2017-12-25T23:50:16.512Z,30.37
2017-12-25T23:52:43.979Z,31.37
2017-12-25T23:55:11.452Z,31.83
2017-12-25T23:57:38.873Z,32.58
